sensor_id;sensor_type;location;lat;lon;timestamp;P1;durP1;ratioP1;P2;durP2;ratioP2
62463;SDS011;48512;48.552;9.380;2024-02-21T00:01:42;10.18;;;3.30;;
62463;SDS011;48512;48.552;9.380;2024-02-21T00:04:08;18.63;;;3.75;;
62463;SDS011;48512;48.552;9.380;2024-02-21T00:06:35;12.68;;;3.42;;
62463;SDS011;48512;48.552;9.380;2024-02-21T00:09:01;19.75;;;4.78;;
62463;SDS011;48512;48.552;9.380;2024-02-21T00:11:27;13.45;;;3.67;;
62463;SDS011;48512;48.552;9.380;2024-02-21T00:13:54;15.07;;;4.25;;
62463;SDS011;48512;48.552;9.380;2024-02-21T00:16:20;15.93;;;4.05;;
62463;SDS011;48512;48.552;9.380;2024-02-21T00:18:46;14.50;;;3.95;;
62463;SDS011;48512;48.552;9.380;2024-02-21T00:21:13;12.77;;;3.88;;
62463;SDS011;48512;48.552;9.380;2024-02-21T00:23:44;19.38;;;5.15;;
62463;SDS011;48512;48.552;9.380;2024-02-21T00:28:39;14.15;;;3.60;;
62463;SDS011;48512;48.552;9.380;2024-02-21T00:31:05;13.85;;;3.83;;
62463;SDS011;48512;48.552;9.380;2024-02-21T00:33:32;12.80;;;3.65;;
62463;SDS011;48512;48.552;9.380;2024-02-21T00:35:58;16.38;;;4.45;;
62463;SDS011;48512;48.552;9.380;2024-02-21T00:38:24;15.20;;;3.83;;
62463;SDS011;48512;48.552;9.380;2024-02-21T00:40:50;14.00;;;3.53;;
62463;SDS011;48512;48.552;9.380;2024-02-21T00:43:16;13.60;;;4.13;;
62463;SDS011;48512;48.552;9.380;2024-02-21T00:45:42;16.33;;;3.95;;
62463;SDS011;48512;48.552;9.380;2024-02-21T00:48:08;25.95;;;4.00;;
62463;SDS011;48512;48.552;9.380;2024-02-21T00:50:34;10.75;;;3.83;;
62463;SDS011;48512;48.552;9.380;2024-02-21T00:53:03;12.35;;;3.78;;
62463;SDS011;48512;48.552;9.380;2024-02-21T00:55:29;12.15;;;3.90;;
62463;SDS011;48512;48.552;9.380;2024-02-21T00:57:55;13.27;;;3.33;;
62463;SDS011;48512;48.552;9.380;2024-02-21T01:00:21;11.07;;;3.42;;
62463;SDS011;48512;48.552;9.380;2024-02-21T01:02:48;13.00;;;4.30;;
62463;SDS011;48512;48.552;9.380;2024-02-21T01:05:14;14.13;;;3.88;;
62463;SDS011;48512;48.552;9.380;2024-02-21T01:07:40;15.70;;;3.90;;
62463;SDS011;48512;48.552;9.380;2024-02-21T01:10:06;13.68;;;4.47;;
62463;SDS011;48512;48.552;9.380;2024-02-21T01:12:33;15.82;;;3.72;;
62463;SDS011;48512;48.552;9.380;2024-02-21T01:14:59;11.02;;;4.38;;
62463;SDS011;48512;48.552;9.380;2024-02-21T01:17:25;15.98;;;3.97;;
62463;SDS011;48512;48.552;9.380;2024-02-21T01:19:51;12.32;;;3.83;;
62463;SDS011;48512;48.552;9.380;2024-02-21T01:22:17;13.60;;;3.83;;
62463;SDS011;48512;48.552;9.380;2024-02-21T01:24:43;15.65;;;4.40;;
62463;SDS011;48512;48.552;9.380;2024-02-21T01:27:09;16.02;;;4.18;;
62463;SDS011;48512;48.552;9.380;2024-02-21T01:29:36;11.32;;;3.75;;
62463;SDS011;48512;48.552;9.380;2024-02-21T01:32:02;17.25;;;3.97;;
62463;SDS011;48512;48.552;9.380;2024-02-21T01:34:28;10.82;;;3.97;;
62463;SDS011;48512;48.552;9.380;2024-02-21T01:36:54;18.77;;;3.97;;
62463;SDS011;48512;48.552;9.380;2024-02-21T01:39:20;14.82;;;3.95;;
62463;SDS011;48512;48.552;9.380;2024-02-21T01:41:46;10.05;;;3.55;;
62463;SDS011;48512;48.552;9.380;2024-02-21T01:44:12;11.20;;;3.72;;
62463;SDS011;48512;48.552;9.380;2024-02-21T01:46:38;13.48;;;3.58;;
62463;SDS011;48512;48.552;9.380;2024-02-21T01:49:04;7.38;;;3.42;;
62463;SDS011;48512;48.552;9.380;2024-02-21T01:51:30;17.98;;;4.00;;
62463;SDS011;48512;48.552;9.380;2024-02-21T01:53:57;18.92;;;5.20;;
62463;SDS011;48512;48.552;9.380;2024-02-21T01:56:24;12.60;;;3.65;;
62463;SDS011;48512;48.552;9.380;2024-02-21T01:58:50;19.58;;;4.45;;
62463;SDS011;48512;48.552;9.380;2024-02-21T02:01:17;17.92;;;4.78;;
62463;SDS011;48512;48.552;9.380;2024-02-21T02:03:45;14.95;;;3.55;;
62463;SDS011;48512;48.552;9.380;2024-02-21T02:06:12;12.45;;;3.65;;
62463;SDS011;48512;48.552;9.380;2024-02-21T02:08:38;14.73;;;3.83;;
62463;SDS011;48512;48.552;9.380;2024-02-21T02:11:04;16.15;;;3.85;;
62463;SDS011;48512;48.552;9.380;2024-02-21T02:13:30;15.52;;;3.97;;
62463;SDS011;48512;48.552;9.380;2024-02-21T02:15:56;15.65;;;3.85;;
62463;SDS011;48512;48.552;9.380;2024-02-21T02:18:22;15.70;;;4.15;;
62463;SDS011;48512;48.552;9.380;2024-02-21T02:20:49;12.23;;;4.07;;
62463;SDS011;48512;48.552;9.380;2024-02-21T02:25:59;16.17;;;5.70;;
62463;SDS011;48512;48.552;9.380;2024-02-21T02:28:26;19.48;;;4.65;;
62463;SDS011;48512;48.552;9.380;2024-02-21T02:30:52;19.00;;;4.65;;
62463;SDS011;48512;48.552;9.380;2024-02-21T02:33:19;14.43;;;4.75;;
62463;SDS011;48512;48.552;9.380;2024-02-21T02:35:45;18.30;;;4.82;;
62463;SDS011;48512;48.552;9.380;2024-02-21T02:38:11;13.85;;;3.90;;
62463;SDS011;48512;48.552;9.380;2024-02-21T02:40:39;14.13;;;4.60;;
62463;SDS011;48512;48.552;9.380;2024-02-21T02:43:06;17.02;;;4.78;;
62463;SDS011;48512;48.552;9.380;2024-02-21T02:45:32;16.05;;;3.97;;
62463;SDS011;48512;48.552;9.380;2024-02-21T02:47:59;19.08;;;4.22;;
62463;SDS011;48512;48.552;9.380;2024-02-21T02:50:26;22.05;;;5.20;;
62463;SDS011;48512;48.552;9.380;2024-02-21T02:52:53;12.70;;;3.67;;
62463;SDS011;48512;48.552;9.380;2024-02-21T02:55:20;12.60;;;3.85;;
62463;SDS011;48512;48.552;9.380;2024-02-21T02:57:46;19.80;;;4.55;;
62463;SDS011;48512;48.552;9.380;2024-02-21T03:00:12;13.25;;;3.78;;
62463;SDS011;48512;48.552;9.380;2024-02-21T03:02:43;12.52;;;3.40;;
62463;SDS011;48512;48.552;9.380;2024-02-21T03:05:12;10.13;;;3.20;;
62463;SDS011;48512;48.552;9.380;2024-02-21T03:07:39;16.50;;;3.40;;
62463;SDS011;48512;48.552;9.380;2024-02-21T03:10:05;12.02;;;3.70;;
62463;SDS011;48512;48.552;9.380;2024-02-21T03:12:32;11.60;;;3.53;;
62463;SDS011;48512;48.552;9.380;2024-02-21T03:14:58;12.88;;;3.30;;
62463;SDS011;48512;48.552;9.380;2024-02-21T03:17:24;17.60;;;4.13;;
62463;SDS011;48512;48.552;9.380;2024-02-21T03:19:52;12.70;;;3.45;;
62463;SDS011;48512;48.552;9.380;2024-02-21T03:22:19;23.42;;;3.10;;
62463;SDS011;48512;48.552;9.380;2024-02-21T03:24:45;15.40;;;3.63;;
62463;SDS011;48512;48.552;9.380;2024-02-21T03:27:11;10.52;;;3.30;;
62463;SDS011;48512;48.552;9.380;2024-02-21T03:29:38;9.05;;;3.35;;
62463;SDS011;48512;48.552;9.380;2024-02-21T03:32:04;10.82;;;3.60;;
62463;SDS011;48512;48.552;9.380;2024-02-21T03:34:30;11.75;;;4.35;;
62463;SDS011;48512;48.552;9.380;2024-02-21T03:36:56;14.52;;;4.65;;
62463;SDS011;48512;48.552;9.380;2024-02-21T03:39:23;14.32;;;3.50;;
62463;SDS011;48512;48.552;9.380;2024-02-21T03:41:49;10.30;;;4.00;;
62463;SDS011;48512;48.552;9.380;2024-02-21T03:44:15;13.57;;;4.70;;
62463;SDS011;48512;48.552;9.380;2024-02-21T03:46:41;18.52;;;3.38;;
62463;SDS011;48512;48.552;9.380;2024-02-21T03:49:07;11.85;;;3.63;;
62463;SDS011;48512;48.552;9.380;2024-02-21T03:51:33;10.00;;;3.28;;
62463;SDS011;48512;48.552;9.380;2024-02-21T03:53:59;12.27;;;3.83;;
62463;SDS011;48512;48.552;9.380;2024-02-21T03:56:25;12.85;;;3.75;;
62463;SDS011;48512;48.552;9.380;2024-02-21T03:58:51;11.48;;;3.92;;
62463;SDS011;48512;48.552;9.380;2024-02-21T04:01:17;8.95;;;2.95;;
62463;SDS011;48512;48.552;9.380;2024-02-21T04:03:43;10.82;;;3.60;;
62463;SDS011;48512;48.552;9.380;2024-02-21T04:06:10;9.82;;;3.40;;
62463;SDS011;48512;48.552;9.380;2024-02-21T04:08:36;14.20;;;3.17;;
62463;SDS011;48512;48.552;9.380;2024-02-21T04:11:02;14.52;;;3.25;;
62463;SDS011;48512;48.552;9.380;2024-02-21T04:13:28;9.40;;;3.10;;
62463;SDS011;48512;48.552;9.380;2024-02-21T04:15:54;9.77;;;3.42;;
62463;SDS011;48512;48.552;9.380;2024-02-21T04:18:20;10.68;;;3.38;;
62463;SDS011;48512;48.552;9.380;2024-02-21T04:20:47;12.65;;;3.28;;
62463;SDS011;48512;48.552;9.380;2024-02-21T04:23:13;17.73;;;3.67;;
62463;SDS011;48512;48.552;9.380;2024-02-21T04:25:40;9.95;;;3.40;;
62463;SDS011;48512;48.552;9.380;2024-02-21T04:28:06;16.05;;;3.25;;
62463;SDS011;48512;48.552;9.380;2024-02-21T04:30:32;8.52;;;2.90;;
62463;SDS011;48512;48.552;9.380;2024-02-21T04:32:58;11.65;;;3.53;;
62463;SDS011;48512;48.552;9.380;2024-02-21T04:35:24;12.07;;;3.42;;
62463;SDS011;48512;48.552;9.380;2024-02-21T04:37:50;12.85;;;3.10;;
62463;SDS011;48512;48.552;9.380;2024-02-21T04:40:16;7.80;;;3.08;;
62463;SDS011;48512;48.552;9.380;2024-02-21T04:42:43;11.90;;;2.83;;
62463;SDS011;48512;48.552;9.380;2024-02-21T04:45:10;16.08;;;3.70;;
62463;SDS011;48512;48.552;9.380;2024-02-21T04:47:36;9.95;;;3.38;;
62463;SDS011;48512;48.552;9.380;2024-02-21T04:50:02;8.65;;;3.60;;
62463;SDS011;48512;48.552;9.380;2024-02-21T04:52:28;8.07;;;2.92;;
62463;SDS011;48512;48.552;9.380;2024-02-21T04:54:55;9.95;;;2.97;;
62463;SDS011;48512;48.552;9.380;2024-02-21T04:57:21;9.77;;;3.30;;
62463;SDS011;48512;48.552;9.380;2024-02-21T04:59:47;18.73;;;4.53;;
62463;SDS011;48512;48.552;9.380;2024-02-21T05:02:14;12.82;;;3.85;;
62463;SDS011;48512;48.552;9.380;2024-02-21T05:04:40;11.95;;;4.13;;
62463;SDS011;48512;48.552;9.380;2024-02-21T05:07:07;7.68;;;2.70;;
62463;SDS011;48512;48.552;9.380;2024-02-21T05:09:33;9.52;;;2.92;;
62463;SDS011;48512;48.552;9.380;2024-02-21T05:12:00;13.27;;;3.30;;
62463;SDS011;48512;48.552;9.380;2024-02-21T05:14:26;10.80;;;3.25;;
62463;SDS011;48512;48.552;9.380;2024-02-21T05:16:54;9.80;;;2.90;;
62463;SDS011;48512;48.552;9.380;2024-02-21T05:19:21;8.63;;;3.00;;
62463;SDS011;48512;48.552;9.380;2024-02-21T05:21:47;11.30;;;2.63;;
62463;SDS011;48512;48.552;9.380;2024-02-21T05:24:13;7.13;;;2.63;;
62463;SDS011;48512;48.552;9.380;2024-02-21T05:26:39;7.57;;;2.80;;
62463;SDS011;48512;48.552;9.380;2024-02-21T05:29:05;10.50;;;2.53;;
62463;SDS011;48512;48.552;9.380;2024-02-21T05:31:42;10.68;;;2.60;;
62463;SDS011;48512;48.552;9.380;2024-02-21T05:34:17;10.70;;;3.30;;
62463;SDS011;48512;48.552;9.380;2024-02-21T05:36:44;12.05;;;3.28;;
62463;SDS011;48512;48.552;9.380;2024-02-21T05:39:10;7.75;;;2.55;;
62463;SDS011;48512;48.552;9.380;2024-02-21T05:41:36;7.63;;;2.78;;
62463;SDS011;48512;48.552;9.380;2024-02-21T05:44:02;10.45;;;2.85;;
62463;SDS011;48512;48.552;9.380;2024-02-21T05:46:28;19.23;;;5.65;;
62463;SDS011;48512;48.552;9.380;2024-02-21T05:48:55;14.52;;;4.20;;
62463;SDS011;48512;48.552;9.380;2024-02-21T05:51:21;8.45;;;3.20;;
62463;SDS011;48512;48.552;9.380;2024-02-21T05:53:47;8.95;;;3.20;;
62463;SDS011;48512;48.552;9.380;2024-02-21T05:56:13;8.75;;;3.00;;
62463;SDS011;48512;48.552;9.380;2024-02-21T05:58:40;9.50;;;2.70;;
62463;SDS011;48512;48.552;9.380;2024-02-21T06:01:07;7.97;;;3.05;;
62463;SDS011;48512;48.552;9.380;2024-02-21T06:03:33;10.68;;;3.03;;
62463;SDS011;48512;48.552;9.380;2024-02-21T06:06:00;9.27;;;3.78;;
62463;SDS011;48512;48.552;9.380;2024-02-21T06:08:26;8.93;;;3.15;;
62463;SDS011;48512;48.552;9.380;2024-02-21T06:10:52;8.30;;;3.15;;
62463;SDS011;48512;48.552;9.380;2024-02-21T06:13:20;12.68;;;3.17;;
62463;SDS011;48512;48.552;9.380;2024-02-21T06:15:47;7.55;;;3.60;;
62463;SDS011;48512;48.552;9.380;2024-02-21T06:18:13;12.45;;;3.28;;
62463;SDS011;48512;48.552;9.380;2024-02-21T06:20:40;13.27;;;3.20;;
62463;SDS011;48512;48.552;9.380;2024-02-21T06:23:06;14.27;;;3.03;;
62463;SDS011;48512;48.552;9.380;2024-02-21T06:25:32;11.95;;;3.03;;
62463;SDS011;48512;48.552;9.380;2024-02-21T06:27:58;10.20;;;3.53;;
62463;SDS011;48512;48.552;9.380;2024-02-21T06:30:24;8.25;;;3.90;;
62463;SDS011;48512;48.552;9.380;2024-02-21T06:32:51;7.63;;;3.08;;
62463;SDS011;48512;48.552;9.380;2024-02-21T06:35:20;8.25;;;3.25;;
62463;SDS011;48512;48.552;9.380;2024-02-21T06:37:46;7.88;;;2.55;;
62463;SDS011;48512;48.552;9.380;2024-02-21T06:40:16;15.50;;;4.05;;
62463;SDS011;48512;48.552;9.380;2024-02-21T06:42:43;8.75;;;3.05;;
62463;SDS011;48512;48.552;9.380;2024-02-21T06:45:09;7.90;;;2.72;;
62463;SDS011;48512;48.552;9.380;2024-02-21T06:47:35;14.38;;;4.03;;
62463;SDS011;48512;48.552;9.380;2024-02-21T06:50:01;8.75;;;2.95;;
62463;SDS011;48512;48.552;9.380;2024-02-21T06:52:28;16.58;;;4.60;;
62463;SDS011;48512;48.552;9.380;2024-02-21T06:54:54;19.13;;;6.30;;
62463;SDS011;48512;48.552;9.380;2024-02-21T06:57:20;15.80;;;6.10;;
62463;SDS011;48512;48.552;9.380;2024-02-21T06:59:46;14.13;;;5.57;;
62463;SDS011;48512;48.552;9.380;2024-02-21T07:02:12;11.35;;;4.57;;
62463;SDS011;48512;48.552;9.380;2024-02-21T07:04:38;14.25;;;4.03;;
62463;SDS011;48512;48.552;9.380;2024-02-21T07:07:04;9.10;;;3.33;;
62463;SDS011;48512;48.552;9.380;2024-02-21T07:09:30;9.80;;;3.17;;
62463;SDS011;48512;48.552;9.380;2024-02-21T07:11:58;8.90;;;3.10;;
62463;SDS011;48512;48.552;9.380;2024-02-21T07:14:24;13.15;;;3.60;;
62463;SDS011;48512;48.552;9.380;2024-02-21T07:16:51;6.40;;;3.05;;
62463;SDS011;48512;48.552;9.380;2024-02-21T07:19:17;6.50;;;2.58;;
62463;SDS011;48512;48.552;9.380;2024-02-21T07:21:43;10.43;;;3.45;;
62463;SDS011;48512;48.552;9.380;2024-02-21T07:24:09;12.30;;;2.72;;
62463;SDS011;48512;48.552;9.380;2024-02-21T07:26:35;6.28;;;2.85;;
62463;SDS011;48512;48.552;9.380;2024-02-21T07:29:02;5.05;;;2.92;;
62463;SDS011;48512;48.552;9.380;2024-02-21T07:31:28;10.07;;;3.55;;
62463;SDS011;48512;48.552;9.380;2024-02-21T07:33:54;12.32;;;3.88;;
62463;SDS011;48512;48.552;9.380;2024-02-21T07:36:29;18.40;;;5.85;;
62463;SDS011;48512;48.552;9.380;2024-02-21T07:38:59;12.40;;;4.72;;
62463;SDS011;48512;48.552;9.380;2024-02-21T07:41:25;12.50;;;4.88;;
62463;SDS011;48512;48.552;9.380;2024-02-21T07:43:52;10.25;;;3.63;;
62463;SDS011;48512;48.552;9.380;2024-02-21T07:46:18;12.10;;;4.20;;
62463;SDS011;48512;48.552;9.380;2024-02-21T07:48:47;8.95;;;4.47;;
62463;SDS011;48512;48.552;9.380;2024-02-21T07:51:14;13.48;;;5.30;;
62463;SDS011;48512;48.552;9.380;2024-02-21T07:53:42;16.75;;;6.38;;
62463;SDS011;48512;48.552;9.380;2024-02-21T07:56:11;13.77;;;5.15;;
62463;SDS011;48512;48.552;9.380;2024-02-21T07:58:37;11.82;;;4.95;;
62463;SDS011;48512;48.552;9.380;2024-02-21T08:01:04;13.13;;;4.65;;
62463;SDS011;48512;48.552;9.380;2024-02-21T08:03:30;9.32;;;4.30;;
62463;SDS011;48512;48.552;9.380;2024-02-21T08:05:56;12.38;;;3.13;;
62463;SDS011;48512;48.552;9.380;2024-02-21T08:08:22;9.13;;;3.17;;
62463;SDS011;48512;48.552;9.380;2024-02-21T08:10:51;9.90;;;3.50;;
62463;SDS011;48512;48.552;9.380;2024-02-21T08:13:17;11.68;;;3.13;;
62463;SDS011;48512;48.552;9.380;2024-02-21T08:15:43;10.30;;;3.40;;
62463;SDS011;48512;48.552;9.380;2024-02-21T08:18:10;7.03;;;3.10;;
62463;SDS011;48512;48.552;9.380;2024-02-21T08:20:36;13.20;;;2.92;;
62463;SDS011;48512;48.552;9.380;2024-02-21T08:23:02;8.75;;;2.38;;
62463;SDS011;48512;48.552;9.380;2024-02-21T08:25:28;7.82;;;2.58;;
62463;SDS011;48512;48.552;9.380;2024-02-21T08:27:56;9.40;;;2.60;;
62463;SDS011;48512;48.552;9.380;2024-02-21T08:30:24;11.15;;;2.88;;
62463;SDS011;48512;48.552;9.380;2024-02-21T08:32:50;8.38;;;3.25;;
62463;SDS011;48512;48.552;9.380;2024-02-21T08:35:16;7.57;;;2.70;;
62463;SDS011;48512;48.552;9.380;2024-02-21T08:37:46;10.90;;;2.90;;
62463;SDS011;48512;48.552;9.380;2024-02-21T08:40:14;7.93;;;2.60;;
62463;SDS011;48512;48.552;9.380;2024-02-21T08:42:43;11.57;;;2.55;;
62463;SDS011;48512;48.552;9.380;2024-02-21T08:45:09;6.32;;;2.30;;
62463;SDS011;48512;48.552;9.380;2024-02-21T08:47:36;5.88;;;2.40;;
62463;SDS011;48512;48.552;9.380;2024-02-21T08:50:05;6.80;;;2.25;;
62463;SDS011;48512;48.552;9.380;2024-02-21T08:52:32;3.67;;;2.03;;
62463;SDS011;48512;48.552;9.380;2024-02-21T08:54:58;5.22;;;2.47;;
62463;SDS011;48512;48.552;9.380;2024-02-21T08:57:24;5.90;;;2.28;;
62463;SDS011;48512;48.552;9.380;2024-02-21T08:59:50;5.25;;;1.90;;
62463;SDS011;48512;48.552;9.380;2024-02-21T09:02:16;3.35;;;2.08;;
62463;SDS011;48512;48.552;9.380;2024-02-21T09:04:43;3.75;;;1.63;;
62463;SDS011;48512;48.552;9.380;2024-02-21T09:07:11;7.10;;;1.95;;
62463;SDS011;48512;48.552;9.380;2024-02-21T09:09:37;4.30;;;1.70;;
62463;SDS011;48512;48.552;9.380;2024-02-21T09:12:06;7.15;;;2.13;;
62463;SDS011;48512;48.552;9.380;2024-02-21T09:14:34;4.50;;;1.83;;
62463;SDS011;48512;48.552;9.380;2024-02-21T09:17:03;7.65;;;2.03;;
62463;SDS011;48512;48.552;9.380;2024-02-21T09:19:29;8.30;;;2.33;;
62463;SDS011;48512;48.552;9.380;2024-02-21T09:21:55;3.85;;;1.77;;
62463;SDS011;48512;48.552;9.380;2024-02-21T09:24:21;4.93;;;1.98;;
62463;SDS011;48512;48.552;9.380;2024-02-21T09:26:48;4.45;;;1.70;;
62463;SDS011;48512;48.552;9.380;2024-02-21T09:29:14;4.50;;;1.40;;
62463;SDS011;48512;48.552;9.380;2024-02-21T09:31:41;3.22;;;1.55;;
62463;SDS011;48512;48.552;9.380;2024-02-21T09:34:11;8.23;;;1.60;;
62463;SDS011;48512;48.552;9.380;2024-02-21T09:36:37;9.10;;;3.88;;
62463;SDS011;48512;48.552;9.380;2024-02-21T09:39:04;18.77;;;7.57;;
62463;SDS011;48512;48.552;9.380;2024-02-21T09:41:30;14.77;;;6.22;;
62463;SDS011;48512;48.552;9.380;2024-02-21T09:43:56;18.38;;;6.53;;
62463;SDS011;48512;48.552;9.380;2024-02-21T09:49:29;12.60;;;5.93;;
62463;SDS011;48512;48.552;9.380;2024-02-21T09:51:57;15.82;;;5.72;;
62463;SDS011;48512;48.552;9.380;2024-02-21T09:54:23;16.77;;;5.95;;
62463;SDS011;48512;48.552;9.380;2024-02-21T09:56:49;21.90;;;7.82;;
62463;SDS011;48512;48.552;9.380;2024-02-21T09:59:16;23.38;;;8.90;;
62463;SDS011;48512;48.552;9.380;2024-02-21T10:01:43;24.42;;;9.57;;
62463;SDS011;48512;48.552;9.380;2024-02-21T10:04:10;27.35;;;9.88;;
62463;SDS011;48512;48.552;9.380;2024-02-21T10:06:36;28.25;;;10.05;;
62463;SDS011;48512;48.552;9.380;2024-02-21T10:09:08;23.08;;;10.07;;
62463;SDS011;48512;48.552;9.380;2024-02-21T10:11:34;25.25;;;9.95;;
62463;SDS011;48512;48.552;9.380;2024-02-21T10:16:31;19.50;;;7.60;;
62463;SDS011;48512;48.552;9.380;2024-02-21T10:18:57;20.85;;;8.10;;
62463;SDS011;48512;48.552;9.380;2024-02-21T10:21:23;12.95;;;7.45;;
62463;SDS011;48512;48.552;9.380;2024-02-21T10:23:49;17.40;;;7.00;;
62463;SDS011;48512;48.552;9.380;2024-02-21T10:26:17;12.63;;;6.10;;
62463;SDS011;48512;48.552;9.380;2024-02-21T10:28:44;17.70;;;6.22;;
62463;SDS011;48512;48.552;9.380;2024-02-21T10:31:23;13.57;;;5.40;;
62463;SDS011;48512;48.552;9.380;2024-02-21T10:33:57;14.88;;;5.55;;
62463;SDS011;48512;48.552;9.380;2024-02-21T10:36:25;15.88;;;5.53;;
62463;SDS011;48512;48.552;9.380;2024-02-21T10:38:51;9.63;;;4.70;;
62463;SDS011;48512;48.552;9.380;2024-02-21T10:41:19;12.60;;;4.97;;
62463;SDS011;48512;48.552;9.380;2024-02-21T10:43:49;10.30;;;4.70;;
62463;SDS011;48512;48.552;9.380;2024-02-21T10:46:21;11.07;;;4.30;;
62463;SDS011;48512;48.552;9.380;2024-02-21T10:48:52;11.82;;;4.60;;
62463;SDS011;48512;48.552;9.380;2024-02-21T10:51:34;15.43;;;5.10;;
62463;SDS011;48512;48.552;9.380;2024-02-21T10:56:52;11.80;;;4.43;;
62463;SDS011;48512;48.552;9.380;2024-02-21T10:59:20;13.52;;;4.70;;
62463;SDS011;48512;48.552;9.380;2024-02-21T11:01:47;13.55;;;5.15;;
62463;SDS011;48512;48.552;9.380;2024-02-21T11:04:13;11.65;;;5.03;;
62463;SDS011;48512;48.552;9.380;2024-02-21T11:06:40;9.57;;;4.55;;
62463;SDS011;48512;48.552;9.380;2024-02-21T11:09:08;7.50;;;4.45;;
62463;SDS011;48512;48.552;9.380;2024-02-21T11:16:37;9.27;;;4.00;;
62463;SDS011;48512;48.552;9.380;2024-02-21T11:21:51;7.85;;;4.20;;
62463;SDS011;48512;48.552;9.380;2024-02-21T11:24:25;11.60;;;6.05;;
62463;SDS011;48512;48.552;9.380;2024-02-21T11:26:56;14.13;;;6.82;;
62463;SDS011;48512;48.552;9.380;2024-02-21T11:29:25;19.63;;;8.05;;
62463;SDS011;48512;48.552;9.380;2024-02-21T11:31:52;17.60;;;6.70;;
62463;SDS011;48512;48.552;9.380;2024-02-21T11:34:19;11.23;;;5.43;;
62463;SDS011;48512;48.552;9.380;2024-02-21T11:36:48;8.73;;;4.63;;
62463;SDS011;48512;48.552;9.380;2024-02-21T11:39:19;12.13;;;5.00;;
62463;SDS011;48512;48.552;9.380;2024-02-21T11:42:03;12.82;;;4.97;;
62463;SDS011;48512;48.552;9.380;2024-02-21T11:44:31;11.10;;;4.80;;
62463;SDS011;48512;48.552;9.380;2024-02-21T11:46:58;13.32;;;5.85;;
62463;SDS011;48512;48.552;9.380;2024-02-21T11:49:24;16.23;;;6.10;;
62463;SDS011;48512;48.552;9.380;2024-02-21T11:52:01;11.05;;;5.68;;
62463;SDS011;48512;48.552;9.380;2024-02-21T11:54:30;13.30;;;5.68;;
62463;SDS011;48512;48.552;9.380;2024-02-21T11:56:56;13.93;;;4.45;;
62463;SDS011;48512;48.552;9.380;2024-02-21T11:59:22;12.35;;;5.90;;
62463;SDS011;48512;48.552;9.380;2024-02-21T12:01:49;22.88;;;6.20;;
62463;SDS011;48512;48.552;9.380;2024-02-21T12:04:17;13.07;;;4.73;;
62463;SDS011;48512;48.552;9.380;2024-02-21T12:06:45;9.85;;;4.50;;
62463;SDS011;48512;48.552;9.380;2024-02-21T12:09:18;9.88;;;3.90;;
62463;SDS011;48512;48.552;9.380;2024-02-21T12:11:44;8.75;;;3.55;;
62463;SDS011;48512;48.552;9.380;2024-02-21T12:14:15;12.13;;;3.70;;
62463;SDS011;48512;48.552;9.380;2024-02-21T12:16:42;8.68;;;4.00;;
62463;SDS011;48512;48.552;9.380;2024-02-21T12:19:13;12.23;;;3.58;;
62463;SDS011;48512;48.552;9.380;2024-02-21T12:21:39;9.32;;;3.30;;
62463;SDS011;48512;48.552;9.380;2024-02-21T12:26:41;11.63;;;4.80;;
62463;SDS011;48512;48.552;9.380;2024-02-21T12:29:07;9.95;;;4.05;;
62463;SDS011;48512;48.552;9.380;2024-02-21T12:31:40;10.75;;;3.92;;
62463;SDS011;48512;48.552;9.380;2024-02-21T12:34:06;9.00;;;3.45;;
62463;SDS011;48512;48.552;9.380;2024-02-21T12:36:32;7.97;;;3.17;;
62463;SDS011;48512;48.552;9.380;2024-02-21T12:38:59;14.57;;;3.72;;
62463;SDS011;48512;48.552;9.380;2024-02-21T12:41:27;10.15;;;3.47;;
62463;SDS011;48512;48.552;9.380;2024-02-21T12:43:53;13.45;;;3.83;;
62463;SDS011;48512;48.552;9.380;2024-02-21T12:46:19;7.40;;;3.35;;
62463;SDS011;48512;48.552;9.380;2024-02-21T12:48:46;7.55;;;3.20;;
62463;SDS011;48512;48.552;9.380;2024-02-21T12:51:12;9.60;;;3.00;;
62463;SDS011;48512;48.552;9.380;2024-02-21T12:53:38;5.75;;;3.15;;
62463;SDS011;48512;48.552;9.380;2024-02-21T12:56:05;5.70;;;3.15;;
62463;SDS011;48512;48.552;9.380;2024-02-21T12:58:33;8.00;;;3.47;;
62463;SDS011;48512;48.552;9.380;2024-02-21T13:00:59;9.13;;;3.50;;
62463;SDS011;48512;48.552;9.380;2024-02-21T13:03:26;8.20;;;3.20;;
62463;SDS011;48512;48.552;9.380;2024-02-21T13:05:52;8.55;;;3.42;;
62463;SDS011;48512;48.552;9.380;2024-02-21T13:08:18;7.20;;;3.25;;
62463;SDS011;48512;48.552;9.380;2024-02-21T13:10:48;8.13;;;3.55;;
62463;SDS011;48512;48.552;9.380;2024-02-21T13:13:15;12.45;;;3.00;;
62463;SDS011;48512;48.552;9.380;2024-02-21T13:15:41;10.18;;;3.15;;
62463;SDS011;48512;48.552;9.380;2024-02-21T13:18:09;7.00;;;3.17;;
62463;SDS011;48512;48.552;9.380;2024-02-21T13:20:36;10.27;;;3.30;;
62463;SDS011;48512;48.552;9.380;2024-02-21T13:23:02;7.68;;;2.63;;
62463;SDS011;48512;48.552;9.380;2024-02-21T13:25:29;8.95;;;2.90;;
62463;SDS011;48512;48.552;9.380;2024-02-21T13:27:55;6.95;;;2.70;;
62463;SDS011;48512;48.552;9.380;2024-02-21T13:30:22;6.40;;;2.80;;
62463;SDS011;48512;48.552;9.380;2024-02-21T13:32:48;6.68;;;2.75;;
62463;SDS011;48512;48.552;9.380;2024-02-21T13:35:14;7.68;;;3.17;;
62463;SDS011;48512;48.552;9.380;2024-02-21T13:37:41;7.55;;;3.08;;
62463;SDS011;48512;48.552;9.380;2024-02-21T13:40:09;6.45;;;3.08;;
62463;SDS011;48512;48.552;9.380;2024-02-21T13:42:36;9.13;;;2.88;;
62463;SDS011;48512;48.552;9.380;2024-02-21T13:45:03;10.18;;;3.78;;
62463;SDS011;48512;48.552;9.380;2024-02-21T13:47:33;9.63;;;3.10;;
62463;SDS011;48512;48.552;9.380;2024-02-21T13:50:02;9.10;;;2.90;;
62463;SDS011;48512;48.552;9.380;2024-02-21T13:52:30;8.55;;;3.58;;
62463;SDS011;48512;48.552;9.380;2024-02-21T13:54:57;6.22;;;2.95;;
62463;SDS011;48512;48.552;9.380;2024-02-21T13:57:23;5.35;;;3.08;;
62463;SDS011;48512;48.552;9.380;2024-02-21T13:59:49;9.85;;;3.03;;
62463;SDS011;48512;48.552;9.380;2024-02-21T14:02:16;6.93;;;2.85;;
62463;SDS011;48512;48.552;9.380;2024-02-21T14:04:42;7.53;;;2.70;;
62463;SDS011;48512;48.552;9.380;2024-02-21T14:07:09;8.85;;;3.33;;
62463;SDS011;48512;48.552;9.380;2024-02-21T14:09:35;6.55;;;3.42;;
62463;SDS011;48512;48.552;9.380;2024-02-21T14:12:01;13.70;;;4.38;;
62463;SDS011;48512;48.552;9.380;2024-02-21T14:14:28;7.03;;;3.67;;
62463;SDS011;48512;48.552;9.380;2024-02-21T14:16:54;8.27;;;3.42;;
62463;SDS011;48512;48.552;9.380;2024-02-21T14:19:22;10.02;;;3.30;;
62463;SDS011;48512;48.552;9.380;2024-02-21T14:21:48;9.10;;;3.72;;
62463;SDS011;48512;48.552;9.380;2024-02-21T14:24:14;14.23;;;4.90;;
62463;SDS011;48512;48.552;9.380;2024-02-21T14:26:40;12.20;;;4.85;;
62463;SDS011;48512;48.552;9.380;2024-02-21T14:29:07;11.23;;;4.40;;
62463;SDS011;48512;48.552;9.380;2024-02-21T14:31:33;19.77;;;6.72;;
62463;SDS011;48512;48.552;9.380;2024-02-21T14:33:59;17.23;;;5.55;;
62463;SDS011;48512;48.552;9.380;2024-02-21T14:36:26;10.32;;;4.10;;
62463;SDS011;48512;48.552;9.380;2024-02-21T14:38:52;15.32;;;4.38;;
62463;SDS011;48512;48.552;9.380;2024-02-21T14:41:18;13.07;;;4.15;;
62463;SDS011;48512;48.552;9.380;2024-02-21T14:43:45;7.60;;;2.80;;
62463;SDS011;48512;48.552;9.380;2024-02-21T14:46:11;9.40;;;3.47;;
62463;SDS011;48512;48.552;9.380;2024-02-21T14:48:38;7.30;;;3.22;;
62463;SDS011;48512;48.552;9.380;2024-02-21T14:51:04;8.93;;;3.42;;
62463;SDS011;48512;48.552;9.380;2024-02-21T14:53:30;14.57;;;7.13;;
62463;SDS011;48512;48.552;9.380;2024-02-21T14:55:56;7.80;;;3.95;;
62463;SDS011;48512;48.552;9.380;2024-02-21T14:58:25;10.10;;;3.88;;
62463;SDS011;48512;48.552;9.380;2024-02-21T15:00:53;8.65;;;3.58;;